sensor_id;sensor_type;location;lat;lon;timestamp;P1;durP1;ratioP1;P2;durP2;ratioP2
77123;SDS011;66079;47.646;19.130;2022-12-24T00:02:46;38.47;;;18.48;;
77123;SDS011;66079;47.646;19.130;2022-12-24T00:05:49;41.35;;;18.42;;
77123;SDS011;66079;47.646;19.130;2022-12-24T00:08:52;37.13;;;18.60;;
77123;SDS011;66079;47.646;19.130;2022-12-24T00:11:54;35.80;;;17.93;;
77123;SDS011;66079;47.646;19.130;2022-12-24T00:14:57;35.17;;;17.58;;
77123;SDS011;66079;47.646;19.130;2022-12-24T00:18:00;34.75;;;17.23;;
77123;SDS011;66079;47.646;19.130;2022-12-24T00:21:03;36.60;;;18.10;;
77123;SDS011;66079;47.646;19.130;2022-12-24T00:24:07;39.27;;;18.73;;
77123;SDS011;66079;47.646;19.130;2022-12-24T00:27:10;37.10;;;17.50;;
77123;SDS011;66079;47.646;19.130;2022-12-24T00:30:15;33.45;;;17.10;;
77123;SDS011;66079;47.646;19.130;2022-12-24T00:33:17;32.72;;;17.02;;
77123;SDS011;66079;47.646;19.130;2022-12-24T00:36:25;34.75;;;17.67;;
77123;SDS011;66079;47.646;19.130;2022-12-24T00:39:28;34.73;;;17.77;;
77123;SDS011;66079;47.646;19.130;2022-12-24T00:42:30;38.05;;;19.02;;
77123;SDS011;66079;47.646;19.130;2022-12-24T00:45:33;36.67;;;18.15;;
77123;SDS011;66079;47.646;19.130;2022-12-24T00:48:35;32.80;;;17.75;;
77123;SDS011;66079;47.646;19.130;2022-12-24T00:51:38;39.17;;;17.45;;
77123;SDS011;66079;47.646;19.130;2022-12-24T00:54:41;33.50;;;16.73;;
77123;SDS011;66079;47.646;19.130;2022-12-24T00:57:43;35.72;;;17.40;;
77123;SDS011;66079;47.646;19.130;2022-12-24T01:00:50;37.20;;;18.83;;
77123;SDS011;66079;47.646;19.130;2022-12-24T01:03:53;34.40;;;18.48;;
77123;SDS011;66079;47.646;19.130;2022-12-24T01:07:14;36.45;;;18.77;;
77123;SDS011;66079;47.646;19.130;2022-12-24T01:10:18;38.00;;;18.47;;
77123;SDS011;66079;47.646;19.130;2022-12-24T01:13:21;36.85;;;18.75;;
77123;SDS011;66079;47.646;19.130;2022-12-24T01:16:24;39.35;;;19.65;;
77123;SDS011;66079;47.646;19.130;2022-12-24T01:19:26;41.25;;;21.00;;
77123;SDS011;66079;47.646;19.130;2022-12-24T01:22:29;42.60;;;21.30;;
77123;SDS011;66079;47.646;19.130;2022-12-24T01:25:31;43.67;;;21.20;;
77123;SDS011;66079;47.646;19.130;2022-12-24T01:28:34;46.03;;;22.15;;
77123;SDS011;66079;47.646;19.130;2022-12-24T01:31:36;43.20;;;22.02;;
77123;SDS011;66079;47.646;19.130;2022-12-24T01:34:39;46.40;;;22.33;;
77123;SDS011;66079;47.646;19.130;2022-12-24T01:37:42;44.70;;;21.47;;
77123;SDS011;66079;47.646;19.130;2022-12-24T01:40:48;44.10;;;21.40;;
77123;SDS011;66079;47.646;19.130;2022-12-24T01:47:37;40.40;;;20.98;;
77123;SDS011;66079;47.646;19.130;2022-12-24T01:50:41;41.97;;;20.95;;
77123;SDS011;66079;47.646;19.130;2022-12-24T01:53:44;45.07;;;22.50;;
77123;SDS011;66079;47.646;19.130;2022-12-24T01:56:51;41.77;;;21.77;;
77123;SDS011;66079;47.646;19.130;2022-12-24T01:59:59;47.42;;;23.10;;
77123;SDS011;66079;47.646;19.130;2022-12-24T02:03:08;41.75;;;21.40;;
77123;SDS011;66079;47.646;19.130;2022-12-24T02:06:11;40.70;;;20.02;;
77123;SDS011;66079;47.646;19.130;2022-12-24T02:09:19;39.23;;;20.00;;
77123;SDS011;66079;47.646;19.130;2022-12-24T02:12:22;35.80;;;17.47;;
77123;SDS011;66079;47.646;19.130;2022-12-24T02:15:27;38.38;;;18.90;;
77123;SDS011;66079;47.646;19.130;2022-12-24T02:18:49;46.88;;;20.00;;
77123;SDS011;66079;47.646;19.130;2022-12-24T02:22:05;39.40;;;18.00;;
77123;SDS011;66079;47.646;19.130;2022-12-24T02:34:46;41.70;;;19.52;;
77123;SDS011;66079;47.646;19.130;2022-12-24T02:38:00;50.03;;;20.58;;
77123;SDS011;66079;47.646;19.130;2022-12-24T02:41:14;48.13;;;21.83;;
77123;SDS011;66079;47.646;19.130;2022-12-24T02:44:22;47.60;;;21.20;;
77123;SDS011;66079;47.646;19.130;2022-12-24T02:47:27;51.38;;;21.42;;
77123;SDS011;66079;47.646;19.130;2022-12-24T02:50:36;58.42;;;23.02;;
77123;SDS011;66079;47.646;19.130;2022-12-24T02:53:39;50.75;;;22.73;;
77123;SDS011;66079;47.646;19.130;2022-12-24T02:59:48;54.07;;;23.83;;
77123;SDS011;66079;47.646;19.130;2022-12-24T03:13:12;51.33;;;22.77;;
77123;SDS011;66079;47.646;19.130;2022-12-24T03:16:20;51.73;;;22.87;;
77123;SDS011;66079;47.646;19.130;2022-12-24T03:19:25;51.70;;;23.02;;
77123;SDS011;66079;47.646;19.130;2022-12-24T03:22:29;55.00;;;25.70;;
77123;SDS011;66079;47.646;19.130;2022-12-24T03:25:34;58.38;;;27.92;;
77123;SDS011;66079;47.646;19.130;2022-12-24T03:28:41;59.10;;;29.07;;
77123;SDS011;66079;47.646;19.130;2022-12-24T03:31:49;50.53;;;26.77;;
77123;SDS011;66079;47.646;19.130;2022-12-24T03:34:54;58.10;;;29.42;;
77123;SDS011;66079;47.646;19.130;2022-12-24T03:37:56;68.18;;;31.88;;
77123;SDS011;66079;47.646;19.130;2022-12-24T03:41:04;67.70;;;31.40;;
77123;SDS011;66079;47.646;19.130;2022-12-24T03:44:07;64.90;;;32.13;;
77123;SDS011;66079;47.646;19.130;2022-12-24T03:47:10;63.20;;;30.70;;
77123;SDS011;66079;47.646;19.130;2022-12-24T03:50:12;61.67;;;30.98;;
77123;SDS011;66079;47.646;19.130;2022-12-24T03:53:15;62.45;;;31.92;;
77123;SDS011;66079;47.646;19.130;2022-12-24T03:56:17;58.05;;;29.60;;
77123;SDS011;66079;47.646;19.130;2022-12-24T03:59:20;61.83;;;29.00;;
77123;SDS011;66079;47.646;19.130;2022-12-24T04:02:22;61.23;;;29.23;;
77123;SDS011;66079;47.646;19.130;2022-12-24T04:05:25;54.13;;;29.10;;
77123;SDS011;66079;47.646;19.130;2022-12-24T04:08:28;58.40;;;28.88;;
77123;SDS011;66079;47.646;19.130;2022-12-24T04:11:31;61.33;;;31.70;;
77123;SDS011;66079;47.646;19.130;2022-12-24T04:14:33;60.20;;;30.73;;
77123;SDS011;66079;47.646;19.130;2022-12-24T04:17:37;52.13;;;27.40;;
77123;SDS011;66079;47.646;19.130;2022-12-24T04:20:42;51.92;;;27.05;;
77123;SDS011;66079;47.646;19.130;2022-12-24T04:23:45;48.33;;;27.00;;
77123;SDS011;66079;47.646;19.130;2022-12-24T04:26:49;49.55;;;27.23;;
77123;SDS011;66079;47.646;19.130;2022-12-24T04:29:51;51.60;;;27.57;;
77123;SDS011;66079;47.646;19.130;2022-12-24T04:32:53;49.47;;;26.77;;
77123;SDS011;66079;47.646;19.130;2022-12-24T04:35:56;48.85;;;26.65;;
77123;SDS011;66079;47.646;19.130;2022-12-24T04:39:00;48.72;;;25.40;;
77123;SDS011;66079;47.646;19.130;2022-12-24T04:42:02;47.95;;;26.48;;
77123;SDS011;66079;47.646;19.130;2022-12-24T04:45:06;47.97;;;25.10;;
77123;SDS011;66079;47.646;19.130;2022-12-24T04:48:09;45.53;;;24.98;;
77123;SDS011;66079;47.646;19.130;2022-12-24T04:51:12;47.97;;;25.63;;
77123;SDS011;66079;47.646;19.130;2022-12-24T04:54:15;45.97;;;25.70;;
77123;SDS011;66079;47.646;19.130;2022-12-24T04:57:17;46.17;;;24.23;;
77123;SDS011;66079;47.646;19.130;2022-12-24T05:00:20;46.77;;;24.60;;
77123;SDS011;66079;47.646;19.130;2022-12-24T05:03:23;44.78;;;23.65;;
77123;SDS011;66079;47.646;19.130;2022-12-24T05:06:27;49.83;;;24.98;;
77123;SDS011;66079;47.646;19.130;2022-12-24T05:09:32;48.05;;;25.08;;
77123;SDS011;66079;47.646;19.130;2022-12-24T05:12:34;46.28;;;25.15;;
77123;SDS011;66079;47.646;19.130;2022-12-24T05:15:37;50.07;;;25.10;;
77123;SDS011;66079;47.646;19.130;2022-12-24T05:18:39;46.70;;;25.23;;
77123;SDS011;66079;47.646;19.130;2022-12-24T05:21:42;47.33;;;25.48;;
77123;SDS011;66079;47.646;19.130;2022-12-24T05:24:44;52.38;;;26.27;;
77123;SDS011;66079;47.646;19.130;2022-12-24T05:28:05;48.10;;;25.38;;
77123;SDS011;66079;47.646;19.130;2022-12-24T05:31:08;53.03;;;26.40;;
77123;SDS011;66079;47.646;19.130;2022-12-24T05:34:11;51.58;;;26.42;;
77123;SDS011;66079;47.646;19.130;2022-12-24T05:37:14;45.63;;;25.63;;
77123;SDS011;66079;47.646;19.130;2022-12-24T05:40:17;45.65;;;25.85;;
77123;SDS011;66079;47.646;19.130;2022-12-24T05:43:19;43.90;;;25.13;;
77123;SDS011;66079;47.646;19.130;2022-12-24T05:46:22;51.23;;;26.53;;
77123;SDS011;66079;47.646;19.130;2022-12-24T05:49:26;49.50;;;27.60;;
77123;SDS011;66079;47.646;19.130;2022-12-24T05:52:29;51.03;;;26.70;;
77123;SDS011;66079;47.646;19.130;2022-12-24T05:55:32;48.78;;;26.75;;
77123;SDS011;66079;47.646;19.130;2022-12-24T05:58:35;51.13;;;26.77;;
77123;SDS011;66079;47.646;19.130;2022-12-24T06:01:39;49.83;;;26.57;;
77123;SDS011;66079;47.646;19.130;2022-12-24T06:04:42;49.58;;;25.80;;
77123;SDS011;66079;47.646;19.130;2022-12-24T06:07:44;45.78;;;26.48;;
77123;SDS011;66079;47.646;19.130;2022-12-24T06:10:54;47.00;;;25.08;;
77123;SDS011;66079;47.646;19.130;2022-12-24T06:13:58;46.47;;;26.40;;
77123;SDS011;66079;47.646;19.130;2022-12-24T06:17:00;51.03;;;27.07;;
77123;SDS011;66079;47.646;19.130;2022-12-24T06:20:03;46.97;;;25.92;;
77123;SDS011;66079;47.646;19.130;2022-12-24T06:23:08;47.17;;;26.50;;
77123;SDS011;66079;47.646;19.130;2022-12-24T06:26:11;43.45;;;24.10;;
77123;SDS011;66079;47.646;19.130;2022-12-24T06:29:16;50.38;;;25.35;;
77123;SDS011;66079;47.646;19.130;2022-12-24T06:32:19;47.10;;;25.37;;
77123;SDS011;66079;47.646;19.130;2022-12-24T06:35:21;48.05;;;25.73;;
77123;SDS011;66079;47.646;19.130;2022-12-24T06:38:24;44.45;;;25.90;;
77123;SDS011;66079;47.646;19.130;2022-12-24T06:41:27;43.30;;;25.30;;
77123;SDS011;66079;47.646;19.130;2022-12-24T06:44:30;45.13;;;25.63;;
77123;SDS011;66079;47.646;19.130;2022-12-24T06:47:32;48.90;;;26.63;;
77123;SDS011;66079;47.646;19.130;2022-12-24T06:50:36;50.30;;;27.33;;
77123;SDS011;66079;47.646;19.130;2022-12-24T06:53:39;48.40;;;26.02;;
77123;SDS011;66079;47.646;19.130;2022-12-24T06:56:42;44.58;;;26.10;;
77123;SDS011;66079;47.646;19.130;2022-12-24T06:59:44;41.08;;;23.35;;
77123;SDS011;66079;47.646;19.130;2022-12-24T07:02:47;42.53;;;24.53;;
77123;SDS011;66079;47.646;19.130;2022-12-24T07:05:49;44.72;;;24.02;;
77123;SDS011;66079;47.646;19.130;2022-12-24T07:08:52;38.30;;;23.65;;
77123;SDS011;66079;47.646;19.130;2022-12-24T07:11:55;38.67;;;21.20;;
77123;SDS011;66079;47.646;19.130;2022-12-24T07:14:57;36.67;;;21.25;;
77123;SDS011;66079;47.646;19.130;2022-12-24T07:18:00;35.83;;;20.83;;
77123;SDS011;66079;47.646;19.130;2022-12-24T07:21:05;34.97;;;21.20;;
77123;SDS011;66079;47.646;19.130;2022-12-24T07:24:08;40.53;;;21.83;;
77123;SDS011;66079;47.646;19.130;2022-12-24T07:27:11;37.92;;;21.58;;
77123;SDS011;66079;47.646;19.130;2022-12-24T07:30:14;37.53;;;22.27;;
77123;SDS011;66079;47.646;19.130;2022-12-24T07:33:17;35.23;;;21.07;;
77123;SDS011;66079;47.646;19.130;2022-12-24T07:36:20;34.58;;;21.17;;
77123;SDS011;66079;47.646;19.130;2022-12-24T07:39:23;32.13;;;19.05;;
77123;SDS011;66079;47.646;19.130;2022-12-24T07:42:25;32.55;;;19.45;;
77123;SDS011;66079;47.646;19.130;2022-12-24T07:45:29;32.67;;;19.43;;
77123;SDS011;66079;47.646;19.130;2022-12-24T07:48:31;32.90;;;20.70;;
77123;SDS011;66079;47.646;19.130;2022-12-24T07:51:34;31.13;;;19.23;;
77123;SDS011;66079;47.646;19.130;2022-12-24T07:54:38;30.67;;;18.08;;
77123;SDS011;66079;47.646;19.130;2022-12-24T07:57:40;16.15;;;9.82;;
77123;SDS011;66079;47.646;19.130;2022-12-24T08:00:44;22.07;;;12.83;;
77123;SDS011;66079;47.646;19.130;2022-12-24T08:03:46;23.77;;;14.30;;
77123;SDS011;66079;47.646;19.130;2022-12-24T08:06:49;26.90;;;16.42;;
77123;SDS011;66079;47.646;19.130;2022-12-24T08:09:52;25.92;;;15.10;;
77123;SDS011;66079;47.646;19.130;2022-12-24T08:12:54;26.42;;;15.40;;
77123;SDS011;66079;47.646;19.130;2022-12-24T08:15:57;24.83;;;15.53;;
77123;SDS011;66079;47.646;19.130;2022-12-24T08:19:00;25.03;;;13.90;;
77123;SDS011;66079;47.646;19.130;2022-12-24T08:22:03;22.20;;;15.77;;
77123;SDS011;66079;47.646;19.130;2022-12-24T08:25:05;18.08;;;12.70;;
77123;SDS011;66079;47.646;19.130;2022-12-24T08:28:08;19.20;;;11.88;;
77123;SDS011;66079;47.646;19.130;2022-12-24T08:31:13;13.37;;;8.83;;
77123;SDS011;66079;47.646;19.130;2022-12-24T08:34:17;15.87;;;8.53;;
77123;SDS011;66079;47.646;19.130;2022-12-24T08:37:20;11.77;;;7.60;;
77123;SDS011;66079;47.646;19.130;2022-12-24T08:40:23;15.25;;;8.90;;
77123;SDS011;66079;47.646;19.130;2022-12-24T08:43:25;13.18;;;8.02;;
77123;SDS011;66079;47.646;19.130;2022-12-24T08:46:28;10.80;;;6.40;;
77123;SDS011;66079;47.646;19.130;2022-12-24T08:49:31;11.30;;;6.87;;
77123;SDS011;66079;47.646;19.130;2022-12-24T08:52:34;9.02;;;5.65;;
77123;SDS011;66079;47.646;19.130;2022-12-24T08:55:37;7.38;;;4.20;;
77123;SDS011;66079;47.646;19.130;2022-12-24T08:58:41;9.32;;;5.53;;
77123;SDS011;66079;47.646;19.130;2022-12-24T09:01:44;7.27;;;4.97;;
77123;SDS011;66079;47.646;19.130;2022-12-24T09:04:47;8.23;;;4.90;;
77123;SDS011;66079;47.646;19.130;2022-12-24T09:07:50;6.68;;;4.95;;
77123;SDS011;66079;47.646;19.130;2022-12-24T09:10:54;7.85;;;4.60;;
77123;SDS011;66079;47.646;19.130;2022-12-24T09:13:57;6.00;;;4.20;;
77123;SDS011;66079;47.646;19.130;2022-12-24T09:16:59;7.13;;;4.90;;
77123;SDS011;66079;47.646;19.130;2022-12-24T09:20:03;7.73;;;5.03;;
77123;SDS011;66079;47.646;19.130;2022-12-24T09:23:08;11.52;;;7.22;;
77123;SDS011;66079;47.646;19.130;2022-12-24T09:26:12;12.27;;;7.40;;
77123;SDS011;66079;47.646;19.130;2022-12-24T09:29:17;11.93;;;7.82;;
77123;SDS011;66079;47.646;19.130;2022-12-24T09:32:20;10.37;;;6.47;;
77123;SDS011;66079;47.646;19.130;2022-12-24T09:35:23;10.97;;;7.73;;
77123;SDS011;66079;47.646;19.130;2022-12-24T09:38:25;11.85;;;7.25;;
77123;SDS011;66079;47.646;19.130;2022-12-24T09:44:47;7.45;;;5.00;;
77123;SDS011;66079;47.646;19.130;2022-12-24T09:48:04;10.60;;;5.23;;
77123;SDS011;66079;47.646;19.130;2022-12-24T09:54:53;4.28;;;1.92;;
77123;SDS011;66079;47.646;19.130;2022-12-24T09:58:03;4.13;;;2.10;;
77123;SDS011;66079;47.646;19.130;2022-12-24T10:01:11;4.63;;;2.30;;
77123;SDS011;66079;47.646;19.130;2022-12-24T10:04:17;6.30;;;3.23;;
77123;SDS011;66079;47.646;19.130;2022-12-24T10:07:42;6.13;;;3.60;;
77123;SDS011;66079;47.646;19.130;2022-12-24T10:11:15;4.72;;;2.78;;
77123;SDS011;66079;47.646;19.130;2022-12-24T10:21:43;1.73;;;1.27;;
77123;SDS011;66079;47.646;19.130;2022-12-24T10:24:58;2.93;;;1.07;;
77123;SDS011;66079;47.646;19.130;2022-12-24T10:28:23;4.30;;;1.08;;
77123;SDS011;66079;47.646;19.130;2022-12-24T10:31:38;4.38;;;0.95;;
77123;SDS011;66079;47.646;19.130;2022-12-24T10:34:52;3.45;;;1.15;;
77123;SDS011;66079;47.646;19.130;2022-12-24T10:38:07;2.53;;;1.00;;
77123;SDS011;66079;47.646;19.130;2022-12-24T10:41:10;2.37;;;1.00;;
77123;SDS011;66079;47.646;19.130;2022-12-24T10:44:19;1.80;;;0.93;;
77123;SDS011;66079;47.646;19.130;2022-12-24T10:47:23;5.03;;;1.23;;
77123;SDS011;66079;47.646;19.130;2022-12-24T10:50:34;1.95;;;0.90;;
77123;SDS011;66079;47.646;19.130;2022-12-24T10:53:43;3.13;;;0.90;;
77123;SDS011;66079;47.646;19.130;2022-12-24T10:56:50;2.73;;;0.80;;
77123;SDS011;66079;47.646;19.130;2022-12-24T10:59:57;1.30;;;0.65;;
77123;SDS011;66079;47.646;19.130;2022-12-24T11:03:07;1.15;;;0.60;;
77123;SDS011;66079;47.646;19.130;2022-12-24T11:06:23;1.75;;;0.63;;
77123;SDS011;66079;47.646;19.130;2022-12-24T11:09:33;2.87;;;0.70;;
77123;SDS011;66079;47.646;19.130;2022-12-24T11:12:45;1.70;;;0.60;;
77123;SDS011;66079;47.646;19.130;2022-12-24T11:19:32;2.65;;;0.70;;
77123;SDS011;66079;47.646;19.130;2022-12-24T11:22:39;2.70;;;0.70;;
77123;SDS011;66079;47.646;19.130;2022-12-24T11:25:47;3.73;;;0.80;;
77123;SDS011;66079;47.646;19.130;2022-12-24T11:32:14;5.10;;;1.15;;
77123;SDS011;66079;47.646;19.130;2022-12-24T11:35:20;4.15;;;1.00;;
77123;SDS011;66079;47.646;19.130;2022-12-24T11:38:25;2.67;;;1.02;;
77123;SDS011;66079;47.646;19.130;2022-12-24T11:41:34;2.77;;;1.10;;
77123;SDS011;66079;47.646;19.130;2022-12-24T11:44:38;4.27;;;0.73;;
77123;SDS011;66079;47.646;19.130;2022-12-24T11:47:50;2.97;;;1.00;;
77123;SDS011;66079;47.646;19.130;2022-12-24T11:51:00;3.65;;;1.10;;
77123;SDS011;66079;47.646;19.130;2022-12-24T11:57:11;4.33;;;0.73;;
77123;SDS011;66079;47.646;19.130;2022-12-24T12:00:18;3.47;;;0.80;;
77123;SDS011;66079;47.646;19.130;2022-12-24T12:09:48;2.28;;;0.70;;
77123;SDS011;66079;47.646;19.130;2022-12-24T12:19:27;4.10;;;0.93;;
77123;SDS011;66079;47.646;19.130;2022-12-24T12:22:52;3.38;;;0.70;;
77123;SDS011;66079;47.646;19.130;2022-12-24T12:29:28;3.53;;;0.70;;
77123;SDS011;66079;47.646;19.130;2022-12-24T12:35:50;1.92;;;0.70;;
77123;SDS011;66079;47.646;19.130;2022-12-24T12:38:55;3.20;;;0.90;;
77123;SDS011;66079;47.646;19.130;2022-12-24T12:42:04;4.15;;;1.00;;
77123;SDS011;66079;47.646;19.130;2022-12-24T12:58:53;3.03;;;1.00;;
77123;SDS011;66079;47.646;19.130;2022-12-24T13:02:14;2.97;;;1.00;;
77123;SDS011;66079;47.646;19.130;2022-12-24T13:05:33;2.03;;;1.10;;
77123;SDS011;66079;47.646;19.130;2022-12-24T13:19:51;3.70;;;1.10;;
77123;SDS011;66079;47.646;19.130;2022-12-24T13:23:01;2.57;;;1.30;;
77123;SDS011;66079;47.646;19.130;2022-12-24T13:26:12;4.30;;;1.00;;
77123;SDS011;66079;47.646;19.130;2022-12-24T13:33:11;2.42;;;0.90;;
77123;SDS011;66079;47.646;19.130;2022-12-24T13:36:16;3.00;;;1.13;;
77123;SDS011;66079;47.646;19.130;2022-12-24T13:39:19;3.70;;;1.47;;
77123;SDS011;66079;47.646;19.130;2022-12-24T13:45:51;6.80;;;1.65;;
77123;SDS011;66079;47.646;19.130;2022-12-24T13:48:53;3.35;;;1.38;;
77123;SDS011;66079;47.646;19.130;2022-12-24T13:55:14;4.30;;;1.40;;
77123;SDS011;66079;47.646;19.130;2022-12-24T13:58:19;4.50;;;1.33;;
77123;SDS011;66079;47.646;19.130;2022-12-24T14:01:32;4.80;;;1.73;;
77123;SDS011;66079;47.646;19.130;2022-12-24T14:04:38;4.05;;;1.35;;
77123;SDS011;66079;47.646;19.130;2022-12-24T14:07:45;3.30;;;1.30;;
77123;SDS011;66079;47.646;19.130;2022-12-24T14:14:28;4.03;;;1.10;;
77123;SDS011;66079;47.646;19.130;2022-12-24T14:17:37;5.53;;;1.58;;
77123;SDS011;66079;47.646;19.130;2022-12-24T14:20:41;3.55;;;1.15;;
77123;SDS011;66079;47.646;19.130;2022-12-24T14:27:37;3.50;;;1.40;;
77123;SDS011;66079;47.646;19.130;2022-12-24T14:30:44;5.75;;;1.10;;
77123;SDS011;66079;47.646;19.130;2022-12-24T14:33:46;3.83;;;1.00;;
77123;SDS011;66079;47.646;19.130;2022-12-24T14:36:50;7.80;;;2.10;;
77123;SDS011;66079;47.646;19.130;2022-12-24T14:39:55;6.37;;;1.80;;
77123;SDS011;66079;47.646;19.130;2022-12-24T14:50:16;10.20;;;4.93;;
77123;SDS011;66079;47.646;19.130;2022-12-24T15:00:18;3.70;;;1.50;;
77123;SDS011;66079;47.646;19.130;2022-12-24T15:03:23;5.75;;;1.77;;
77123;SDS011;66079;47.646;19.130;2022-12-24T15:06:29;3.33;;;1.30;;
77123;SDS011;66079;47.646;19.130;2022-12-24T15:09:35;2.92;;;1.33;;
77123;SDS011;66079;47.646;19.130;2022-12-24T15:12:41;9.07;;;1.73;;
77123;SDS011;66079;47.646;19.130;2022-12-24T15:15:45;4.20;;;1.40;;
77123;SDS011;66079;47.646;19.130;2022-12-24T15:18:57;3.63;;;1.50;;
77123;SDS011;66079;47.646;19.130;2022-12-24T15:22:03;5.35;;;1.75;;
77123;SDS011;66079;47.646;19.130;2022-12-24T15:25:30;4.20;;;1.67;;
77123;SDS011;66079;47.646;19.130;2022-12-24T15:28:35;5.67;;;1.70;;
77123;SDS011;66079;47.646;19.130;2022-12-24T15:31:39;3.50;;;1.60;;
77123;SDS011;66079;47.646;19.130;2022-12-24T15:34:42;5.63;;;1.80;;
77123;SDS011;66079;47.646;19.130;2022-12-24T15:37:46;5.00;;;2.03;;
77123;SDS011;66079;47.646;19.130;2022-12-24T15:40:49;4.40;;;1.80;;
77123;SDS011;66079;47.646;19.130;2022-12-24T15:43:52;4.60;;;1.40;;
77123;SDS011;66079;47.646;19.130;2022-12-24T15:47:00;4.20;;;1.40;;
77123;SDS011;66079;47.646;19.130;2022-12-24T15:50:15;3.67;;;1.50;;
77123;SDS011;66079;47.646;19.130;2022-12-24T15:53:26;4.65;;;1.25;;
77123;SDS011;66079;47.646;19.130;2022-12-24T15:56:35;2.83;;;1.10;;
77123;SDS011;66079;47.646;19.130;2022-12-24T15:59:40;3.33;;;1.20;;
77123;SDS011;66079;47.646;19.130;2022-12-24T16:02:43;4.60;;;1.57;;
77123;SDS011;66079;47.646;19.130;2022-12-24T16:05:52;3.45;;;1.25;;
77123;SDS011;66079;47.646;19.130;2022-12-24T16:09:00;3.67;;;1.13;;
77123;SDS011;66079;47.646;19.130;2022-12-24T16:12:37;5.70;;;1.40;;
77123;SDS011;66079;47.646;19.130;2022-12-24T16:15:54;5.10;;;1.23;;
77123;SDS011;66079;47.646;19.130;2022-12-24T16:19:06;5.50;;;1.40;;
77123;SDS011;66079;47.646;19.130;2022-12-24T16:22:18;5.05;;;1.30;;
77123;SDS011;66079;47.646;19.130;2022-12-24T16:25:36;4.18;;;1.42;;
77123;SDS011;66079;47.646;19.130;2022-12-24T16:28:39;3.13;;;1.38;;
77123;SDS011;66079;47.646;19.130;2022-12-24T16:31:52;3.00;;;1.00;;
77123;SDS011;66079;47.646;19.130;2022-12-24T16:34:59;5.10;;;1.00;;
77123;SDS011;66079;47.646;19.130;2022-12-24T16:38:03;4.60;;;1.30;;
77123;SDS011;66079;47.646;19.130;2022-12-24T16:41:06;4.10;;;1.10;;
77123;SDS011;66079;47.646;19.130;2022-12-24T16:44:08;4.18;;;1.10;;
77123;SDS011;66079;47.646;19.130;2022-12-24T16:47:12;2.73;;;1.00;;
77123;SDS011;66079;47.646;19.130;2022-12-24T16:50:19;5.17;;;1.50;;
77123;SDS011;66079;47.646;19.130;2022-12-24T16:53:22;3.92;;;1.08;;
77123;SDS011;66079;47.646;19.130;2022-12-24T16:56:24;4.97;;;1.10;;
77123;SDS011;66079;47.646;19.130;2022-12-24T16:59:27;3.80;;;0.98;;
77123;SDS011;66079;47.646;19.130;2022-12-24T17:02:29;4.03;;;1.10;;
77123;SDS011;66079;47.646;19.130;2022-12-24T17:05:32;5.03;;;1.10;;
77123;SDS011;66079;47.646;19.130;2022-12-24T17:08:38;4.53;;;1.00;;
77123;SDS011;66079;47.646;19.130;2022-12-24T17:11:42;3.38;;;1.17;;
77123;SDS011;66079;47.646;19.130;2022-12-24T17:14:44;4.35;;;1.73;;
77123;SDS011;66079;47.646;19.130;2022-12-24T17:17:46;3.67;;;1.73;;
77123;SDS011;66079;47.646;19.130;2022-12-24T17:20:56;4.20;;;1.93;;
77123;SDS011;66079;47.646;19.130;2022-12-24T17:24:00;5.63;;;1.70;;
77123;SDS011;66079;47.646;19.130;2022-12-24T17:27:03;3.15;;;1.40;;
77123;SDS011;66079;47.646;19.130;2022-12-24T17:30:06;4.03;;;1.05;;
77123;SDS011;66079;47.646;19.130;2022-12-24T17:33:10;4.80;;;1.70;;
77123;SDS011;66079;47.646;19.130;2022-12-24T17:36:16;5.03;;;1.30;;
77123;SDS011;66079;47.646;19.130;2022-12-24T17:39:20;6.28;;;1.73;;
77123;SDS011;66079;47.646;19.130;2022-12-24T17:42:28;4.85;;;1.42;;
77123;SDS011;66079;47.646;19.130;2022-12-24T17:45:31;4.13;;;1.38;;
77123;SDS011;66079;47.646;19.130;2022-12-24T17:48:33;3.60;;;1.70;;
77123;SDS011;66079;47.646;19.130;2022-12-24T17:51:36;4.17;;;1.30;;
77123;SDS011;66079;47.646;19.130;2022-12-24T17:54:46;4.47;;;2.05;;
77123;SDS011;66079;47.646;19.130;2022-12-24T17:57:49;6.35;;;1.90;;
77123;SDS011;66079;47.646;19.130;2022-12-24T18:00:51;4.00;;;1.92;;
77123;SDS011;66079;47.646;19.130;2022-12-24T18:03:54;5.37;;;2.13;;
77123;SDS011;66079;47.646;19.130;2022-12-24T18:06:58;4.50;;;1.17;;
77123;SDS011;66079;47.646;19.130;2022-12-24T18:10:04;4.95;;;1.73;;
77123;SDS011;66079;47.646;19.130;2022-12-24T18:13:07;4.93;;;1.50;;
77123;SDS011;66079;47.646;19.130;2022-12-24T18:19:22;3.13;;;1.40;;
77123;SDS011;66079;47.646;19.130;2022-12-24T18:22:24;5.43;;;1.60;;
77123;SDS011;66079;47.646;19.130;2022-12-24T18:25:27;3.92;;;1.20;;
77123;SDS011;66079;47.646;19.130;2022-12-24T18:28:30;5.43;;;1.58;;
77123;SDS011;66079;47.646;19.130;2022-12-24T18:31:33;5.88;;;1.90;;
77123;SDS011;66079;47.646;19.130;2022-12-24T18:34:36;5.97;;;2.10;;
77123;SDS011;66079;47.646;19.130;2022-12-24T18:37:39;5.27;;;3.50;;
77123;SDS011;66079;47.646;19.130;2022-12-24T18:40:42;12.60;;;5.93;;
77123;SDS011;66079;47.646;19.130;2022-12-24T18:43:44;11.70;;;7.28;;
77123;SDS011;66079;47.646;19.130;2022-12-24T18:46:47;14.50;;;7.10;;
77123;SDS011;66079;47.646;19.130;2022-12-24T18:49:49;14.17;;;7.27;;
77123;SDS011;66079;47.646;19.130;2022-12-24T18:52:52;17.63;;;9.23;;
77123;SDS011;66079;47.646;19.130;2022-12-24T18:55:55;17.58;;;8.40;;
77123;SDS011;66079;47.646;19.130;2022-12-24T18:59:03;18.63;;;8.48;;
77123;SDS011;66079;47.646;19.130;2022-12-24T19:02:06;18.25;;;9.65;;
77123;SDS011;66079;47.646;19.130;2022-12-24T19:05:08;15.43;;;8.50;;
77123;SDS011;66079;47.646;19.130;2022-12-24T19:08:11;14.90;;;7.70;;
77123;SDS011;66079;47.646;19.130;2022-12-24T19:11:34;7.53;;;3.65;;
77123;SDS011;66079;47.646;19.130;2022-12-24T19:14:38;8.10;;;3.72;;
77123;SDS011;66079;47.646;19.130;2022-12-24T19:17:41;6.38;;;2.40;;
77123;SDS011;66079;47.646;19.130;2022-12-24T19:20:43;6.93;;;1.70;;
77123;SDS011;66079;47.646;19.130;2022-12-24T19:23:47;3.90;;;1.50;;
77123;SDS011;66079;47.646;19.130;2022-12-24T19:26:49;5.35;;;1.60;;
77123;SDS011;66079;47.646;19.130;2022-12-24T19:29:52;5.32;;;1.58;;
77123;SDS011;66079;47.646;19.130;2022-12-24T19:32:54;4.68;;;1.67;;
77123;SDS011;66079;47.646;19.130;2022-12-24T19:36:02;4.20;;;1.50;;
77123;SDS011;66079;47.646;19.130;2022-12-24T19:39:06;3.83;;;1.67;;
77123;SDS011;66079;47.646;19.130;2022-12-24T19:42:10;3.72;;;1.67;;
77123;SDS011;66079;47.646;19.130;2022-12-24T19:45:12;5.57;;;1.80;;
77123;SDS011;66079;47.646;19.130;2022-12-24T19:48:15;2.97;;;1.58;;
77123;SDS011;66079;47.646;19.130;2022-12-24T19:51:18;3.33;;;1.57;;
77123;SDS011;66079;47.646;19.130;2022-12-24T19:54:21;4.37;;;1.40;;
77123;SDS011;66079;47.646;19.130;2022-12-24T19:57:23;4.35;;;1.50;;
77123;SDS011;66079;47.646;19.130;2022-12-24T20:00:26;3.70;;;1.80;;
77123;SDS011;66079;47.646;19.130;2022-12-24T20:03:29;3.33;;;2.10;;
77123;SDS011;66079;47.646;19.130;2022-12-24T20:06:32;4.13;;;1.87;;
77123;SDS011;66079;47.646;19.130;2022-12-24T20:09:37;3.50;;;1.40;;
77123;SDS011;66079;47.646;19.130;2022-12-24T20:12:40;5.93;;;1.60;;
77123;SDS011;66079;47.646;19.130;2022-12-24T20:15:43;4.22;;;1.52;;